createdAt,value
2023-01-04T00:00:18.698Z,1.8
2023-01-04T00:01:26.904Z,0.9
2023-01-04T00:02:35.075Z,1.4
2023-01-04T00:03:43.257Z,1
2023-01-04T00:04:52.442Z,1.4
2023-01-04T00:06:01.614Z,1
2023-01-04T00:07:10.791Z,0.8
2023-01-04T00:08:19.953Z,0.8
2023-01-04T00:09:29.129Z,1.1
2023-01-04T00:10:38.296Z,1
2023-01-04T00:11:47.479Z,1.2
2023-01-04T00:12:56.637Z,1
2023-01-04T00:14:05.823Z,1.1
2023-01-04T00:15:14.984Z,0.9
2023-01-04T00:16:24.173Z,1.7
2023-01-04T00:17:33.334Z,1.9
2023-01-04T00:18:41.529Z,0.9
2023-01-04T00:19:50.689Z,0.8
2023-01-04T00:20:59.873Z,0.9
2023-01-04T00:22:09.051Z,1.2
2023-01-04T00:23:18.216Z,1.2
2023-01-04T00:24:27.394Z,1.1
2023-01-04T00:25:36.568Z,0.9
2023-01-04T00:26:44.748Z,0.8
2023-01-04T00:27:53.935Z,1.3
2023-01-04T00:30:11.306Z,0.9
2023-01-04T00:31:19.490Z,0.9
2023-01-04T00:32:27.702Z,1
2023-01-04T00:33:35.874Z,1.1
2023-01-04T00:34:45.037Z,1.4
2023-01-04T00:35:54.217Z,0.9
2023-01-04T00:37:03.378Z,1
2023-01-04T00:38:12.554Z,0.8
2023-01-04T00:39:21.735Z,1
2023-01-04T00:40:30.906Z,1.3
2023-01-04T00:41:40.074Z,1.1
2023-01-04T00:42:49.245Z,0.9
2023-01-04T00:43:58.413Z,0.8
2023-01-04T00:45:07.601Z,1
2023-01-04T00:46:16.768Z,1.2
2023-01-04T00:47:25.948Z,1.3
2023-01-04T00:48:34.125Z,1
2023-01-04T00:49:43.311Z,0.9
2023-01-04T00:50:52.481Z,0.8
2023-01-04T00:52:01.659Z,1.3
2023-01-04T00:53:10.821Z,1.2
2023-01-04T00:54:19.991Z,1
2023-01-04T00:55:29.151Z,1.1
2023-01-04T00:56:37.354Z,1.2
2023-01-04T00:57:45.535Z,1.3
2023-01-04T00:58:53.771Z,1.1
2023-01-04T01:00:02.097Z,1.4
2023-01-04T01:01:11.096Z,1.2
2023-01-04T01:02:20.272Z,0.9
2023-01-04T01:03:29.437Z,0.8
2023-01-04T01:04:38.627Z,1
2023-01-04T01:05:47.783Z,0.8
2023-01-04T01:06:56.987Z,0.9
2023-01-04T01:08:06.202Z,0.9
2023-01-04T01:09:15.307Z,1.2
2023-01-04T01:10:24.506Z,1
2023-01-04T01:11:33.736Z,0.9
2023-01-04T01:12:42.831Z,1
2023-01-04T01:13:52.003Z,1.2
2023-01-04T01:15:00.197Z,0.9
2023-01-04T01:16:09.355Z,0.8
2023-01-04T01:17:18.521Z,0.9
2023-01-04T01:18:27.699Z,1
2023-01-04T01:19:36.898Z,1.1
2023-01-04T01:20:46.068Z,1
2023-01-04T01:21:55.230Z,0.9
2023-01-04T01:23:03.435Z,1.4
2023-01-04T01:24:11.602Z,0.9
2023-01-04T01:25:20.780Z,1
2023-01-04T01:26:28.969Z,1.1
2023-01-04T01:27:37.161Z,0.7
2023-01-04T01:28:46.332Z,0.8
2023-01-04T01:29:55.515Z,1.6
2023-01-04T01:31:04.677Z,0.8
2023-01-04T01:32:13.859Z,1.9
2023-01-04T01:33:23.023Z,1
2023-01-04T01:34:32.193Z,0.8
2023-01-04T01:35:41.366Z,0.9
2023-01-04T01:36:50.536Z,1.4
2023-01-04T01:37:59.713Z,1.1
2023-01-04T01:40:18.088Z,1
2023-01-04T01:41:27.225Z,1
2023-01-04T01:42:35.531Z,1.6
2023-01-04T01:43:44.594Z,1.3
2023-01-04T01:46:02.991Z,1.1
2023-01-04T01:47:11.130Z,2.7
2023-01-04T01:48:19.383Z,1
2023-01-04T01:49:28.493Z,1.3
2023-01-04T01:50:37.679Z,1.5
2023-01-04T01:51:46.841Z,1.2
2023-01-04T01:52:56.015Z,1.2
2023-01-04T01:54:05.186Z,3.4
2023-01-04T01:55:14.362Z,1.2
2023-01-04T01:56:23.526Z,1.2
2023-01-04T01:57:32.698Z,1.2
2023-01-04T01:58:41.868Z,1.4
2023-01-04T01:59:50.378Z,1.6
2023-01-04T02:00:58.256Z,1.1
2023-01-04T02:02:07.426Z,1.1
2023-01-04T02:03:16.594Z,1.7
2023-01-04T02:04:25.774Z,1.1
2023-01-04T02:05:34.957Z,1.1
2023-01-04T02:06:44.133Z,1.2
2023-01-04T02:07:53.294Z,1
2023-01-04T02:09:02.475Z,1
2023-01-04T02:10:11.636Z,1
2023-01-04T02:11:20.802Z,1.1
2023-01-04T02:12:29.986Z,1
2023-01-04T02:13:39.154Z,1
2023-01-04T02:14:48.352Z,0.8
2023-01-04T02:15:56.511Z,1.3
2023-01-04T02:17:05.713Z,1
2023-01-04T02:18:14.891Z,2.5
2023-01-04T02:19:24.028Z,1.6
2023-01-04T02:20:33.197Z,1
2023-01-04T02:21:42.372Z,1.5
2023-01-04T02:22:51.549Z,1.3
2023-01-04T02:24:00.731Z,0.9
2023-01-04T02:25:09.888Z,1
2023-01-04T02:27:28.238Z,0.8
2023-01-04T02:28:37.414Z,1.3
2023-01-04T02:29:46.657Z,1.1
2023-01-04T02:30:54.783Z,0.9
2023-01-04T02:32:03.946Z,0.9
2023-01-04T02:34:22.288Z,1.1
2023-01-04T02:35:31.457Z,0.7
2023-01-04T02:36:40.646Z,1.6
2023-01-04T02:37:49.815Z,1.3
2023-01-04T02:38:58.984Z,1.2
2023-01-04T02:40:08.154Z,0.8
2023-01-04T02:41:17.333Z,1.5
2023-01-04T02:42:26.499Z,1.1
2023-01-04T02:43:35.679Z,1.4
2023-01-04T02:44:44.849Z,1
2023-01-04T02:45:53.026Z,1
2023-01-04T02:47:02.208Z,1.8
2023-01-04T02:48:11.398Z,1.5
2023-01-04T02:49:20.557Z,1.1
2023-01-04T02:50:29.727Z,1.2
2023-01-04T02:51:38.909Z,1
2023-01-04T02:52:48.070Z,0.9
2023-01-04T02:53:57.249Z,0.8
2023-01-04T02:55:06.426Z,0.8
2023-01-04T02:56:15.595Z,1.7
2023-01-04T02:57:24.773Z,0.9
2023-01-04T02:58:33.945Z,1.7
2023-01-04T02:59:43.103Z,1.2
2023-01-04T03:00:51.301Z,4.4
2023-01-04T03:02:00.482Z,0.8
2023-01-04T03:03:08.677Z,1.1
2023-01-04T03:04:16.859Z,1.3
2023-01-04T03:05:26.030Z,3.7
2023-01-04T03:06:34.237Z,1.2
2023-01-04T03:07:42.416Z,1.1
2023-01-04T03:08:51.614Z,1.2
2023-01-04T03:10:00.761Z,1
2023-01-04T03:11:09.924Z,1
2023-01-04T03:13:28.270Z,1
2023-01-04T03:14:37.453Z,1
2023-01-04T03:15:46.621Z,1.1
2023-01-04T03:16:55.786Z,1.2
2023-01-04T03:18:04.966Z,1.3
2023-01-04T03:19:14.135Z,1.7
2023-01-04T03:20:23.319Z,1.2
2023-01-04T03:21:32.488Z,1.2
2023-01-04T03:22:40.671Z,1.2
2023-01-04T03:23:49.836Z,7
2023-01-04T03:24:59.012Z,1.4
2023-01-04T03:26:08.190Z,1
2023-01-04T03:27:17.366Z,1.2
2023-01-04T03:28:26.680Z,1.1
2023-01-04T03:29:35.705Z,1.2
2023-01-04T03:30:44.879Z,1.8
2023-01-04T03:31:53.083Z,1.7
2023-01-04T03:33:01.265Z,1.3
2023-01-04T03:34:10.446Z,1.1
2023-01-04T03:35:19.614Z,1
2023-01-04T03:36:28.783Z,1
2023-01-04T03:37:37.952Z,1.5
2023-01-04T03:38:47.122Z,1.1
2023-01-04T03:39:55.311Z,1
2023-01-04T03:41:03.529Z,1.3
2023-01-04T03:42:12.674Z,1.1
2023-01-04T03:43:21.844Z,1.1
2023-01-04T03:44:31.028Z,1.2
2023-01-04T03:45:40.215Z,1.2
2023-01-04T03:46:49.377Z,2.4
2023-01-04T03:47:58.541Z,1.5
2023-01-04T03:49:07.728Z,1
2023-01-04T03:50:16.896Z,1
2023-01-04T03:51:26.065Z,1.1
2023-01-04T03:52:35.239Z,1
2023-01-04T03:53:44.401Z,1.3
2023-01-04T03:54:53.577Z,1.2
2023-01-04T03:56:01.754Z,1.3
2023-01-04T03:57:10.953Z,1.3
2023-01-04T03:58:20.116Z,1.1
2023-01-04T03:59:29.280Z,1.4
2023-01-04T04:00:38.476Z,2.4
2023-01-04T04:01:47.636Z,1.2
2023-01-04T04:02:56.797Z,1.6
2023-01-04T04:04:04.992Z,1.2
2023-01-04T04:05:13.190Z,1.1
2023-01-04T04:06:22.357Z,1.3
2023-01-04T04:07:31.540Z,1.2
2023-01-04T04:08:40.692Z,1.1
2023-01-04T04:09:49.890Z,1.1
2023-01-04T04:10:59.054Z,1.1
2023-01-04T04:12:08.226Z,1.1
2023-01-04T04:13:17.395Z,1.1
2023-01-04T04:14:26.573Z,1.1
2023-01-04T04:15:35.733Z,1.2
2023-01-04T04:16:44.914Z,1.6
2023-01-04T04:17:54.089Z,1.5
2023-01-04T04:19:03.254Z,1.7
2023-01-04T04:20:11.451Z,1.4
2023-01-04T04:21:20.630Z,1.5
2023-01-04T04:22:28.820Z,1.5
2023-01-04T04:23:38.005Z,1.5
2023-01-04T04:24:47.167Z,1.6
2023-01-04T04:25:56.331Z,1.3
2023-01-04T04:27:05.498Z,1.3
2023-01-04T04:28:13.702Z,1.2
2023-01-04T04:29:21.873Z,1.8
2023-01-04T04:30:30.113Z,1.3
2023-01-04T04:31:38.262Z,1.1
2023-01-04T04:32:47.435Z,1.4
2023-01-04T04:33:56.612Z,1.1
2023-01-04T04:35:06.032Z,1.4
2023-01-04T04:36:14.977Z,1.2
2023-01-04T04:37:24.145Z,1.9
2023-01-04T04:38:33.292Z,1.1
2023-01-04T04:39:42.491Z,1.3
2023-01-04T04:40:51.649Z,1.1
2023-01-04T04:42:00.823Z,1.2
2023-01-04T04:43:09.988Z,1.2
2023-01-04T04:44:19.165Z,1.2
2023-01-04T04:45:28.348Z,1.4
2023-01-04T04:46:36.529Z,1.3
2023-01-04T04:47:45.703Z,1.2
2023-01-04T04:48:54.873Z,1.1
2023-01-04T04:50:04.068Z,1.3
2023-01-04T04:51:13.220Z,1.1
2023-01-04T04:52:22.392Z,1
2023-01-04T04:53:31.581Z,1.2
2023-01-04T04:54:39.748Z,1.3
2023-01-04T04:55:47.949Z,1.2
2023-01-04T04:56:56.134Z,3.1
2023-01-04T04:58:04.326Z,1.7
2023-01-04T04:59:13.482Z,1.3
2023-01-04T05:00:22.679Z,1.3
2023-01-04T05:01:31.844Z,1.3
2023-01-04T05:02:41.022Z,1.6
2023-01-04T05:03:50.197Z,1.6
2023-01-04T05:04:59.358Z,1.4
2023-01-04T05:06:08.529Z,1.2
2023-01-04T05:07:17.711Z,1.5
2023-01-04T05:08:26.875Z,1.2
2023-01-04T05:10:45.232Z,1
2023-01-04T05:11:54.389Z,1.1
2023-01-04T05:13:02.587Z,1.1
2023-01-04T05:14:11.749Z,2
2023-01-04T05:15:20.926Z,1
2023-01-04T05:16:30.111Z,1
2023-01-04T05:17:39.278Z,1.1
2023-01-04T05:18:48.449Z,1
2023-01-04T05:19:57.624Z,1.4
2023-01-04T05:21:06.796Z,1.5
2023-01-04T05:22:14.987Z,1.1
2023-01-04T05:24:32.342Z,1.1
2023-01-04T05:25:40.530Z,1.2
2023-01-04T05:26:48.720Z,0.9
2023-01-04T05:27:57.907Z,0.9
2023-01-04T05:29:07.073Z,1
2023-01-04T05:30:16.235Z,0.9
2023-01-04T05:31:25.421Z,1.1
2023-01-04T05:32:34.583Z,1
2023-01-04T05:33:43.766Z,1.1
2023-01-04T05:34:52.938Z,1.2
2023-01-04T05:36:02.103Z,0.9
2023-01-04T05:37:11.269Z,0.9
2023-01-04T05:38:20.452Z,1
2023-01-04T05:39:29.625Z,1.1
2023-01-04T05:40:38.851Z,1
2023-01-04T05:41:46.995Z,2.3
2023-01-04T05:44:05.334Z,1
2023-01-04T05:45:14.506Z,0.9
2023-01-04T05:46:23.678Z,1.2
2023-01-04T05:47:32.851Z,1.2
2023-01-04T05:48:42.017Z,1
2023-01-04T05:49:51.195Z,1.7
2023-01-04T05:52:09.538Z,1.2
2023-01-04T05:53:18.715Z,1.1
2023-01-04T05:54:27.888Z,1.2
2023-01-04T05:55:36.077Z,2
2023-01-04T05:56:44.269Z,1
2023-01-04T05:57:53.442Z,1.1
2023-01-04T05:59:02.606Z,1
2023-01-04T06:00:10.808Z,1.2
2023-01-04T06:01:18.990Z,1.1
2023-01-04T06:02:28.158Z,1.8
2023-01-04T06:03:37.351Z,1.6
2023-01-04T06:05:55.680Z,1.2
2023-01-04T06:07:04.871Z,1
2023-01-04T06:08:14.027Z,1.1
2023-01-04T06:09:23.191Z,1.5
2023-01-04T06:10:32.383Z,1.1
2023-01-04T06:11:41.550Z,1.1
2023-01-04T06:12:50.720Z,1.3
2023-01-04T06:13:59.898Z,1
2023-01-04T06:15:09.065Z,1
2023-01-04T06:16:17.257Z,0.9
2023-01-04T06:17:26.424Z,1
2023-01-04T06:18:35.600Z,1.1
2023-01-04T06:19:44.776Z,1.1
2023-01-04T06:20:53.941Z,1
2023-01-04T06:22:03.118Z,1
2023-01-04T06:23:12.279Z,1.1
2023-01-04T06:24:21.454Z,1.1
2023-01-04T06:25:29.655Z,1.2
2023-01-04T06:26:37.839Z,1
2023-01-04T06:27:47.018Z,1
2023-01-04T06:28:56.187Z,1.2
2023-01-04T06:30:05.348Z,1.2
2023-01-04T06:31:14.532Z,1.4
2023-01-04T06:32:23.696Z,1.2
2023-01-04T06:33:32.876Z,1
2023-01-04T06:34:42.050Z,1.2
2023-01-04T06:37:00.419Z,1.1
2023-01-04T06:38:09.571Z,1.3
2023-01-04T06:39:18.736Z,1
2023-01-04T06:40:27.915Z,1
2023-01-04T06:41:36.100Z,0.9
2023-01-04T06:42:45.275Z,0.9
2023-01-04T06:43:54.440Z,0.6
2023-01-04T06:45:03.616Z,0.7
2023-01-04T06:46:12.789Z,0.7
2023-01-04T06:47:21.957Z,1
2023-01-04T06:48:31.135Z,1.2
2023-01-04T06:49:40.298Z,1.1
2023-01-04T06:50:48.507Z,1.2
2023-01-04T06:51:56.691Z,1
2023-01-04T06:53:05.873Z,0.9
2023-01-04T06:54:14.064Z,0.9
2023-01-04T06:55:22.254Z,0.8
2023-01-04T06:56:31.419Z,0.9
2023-01-04T06:57:40.580Z,1.1
2023-01-04T06:58:49.756Z,0.9
2023-01-04T06:59:58.932Z,1.5
2023-01-04T07:01:08.184Z,1.3
2023-01-04T07:02:17.353Z,1.7
2023-01-04T07:03:26.457Z,1
2023-01-04T07:04:35.636Z,1.1
2023-01-04T07:05:44.814Z,1.1
2023-01-04T07:06:53.969Z,1
2023-01-04T07:08:03.156Z,1.2
2023-01-04T07:09:12.311Z,1.5
2023-01-04T07:10:20.519Z,1.1
2023-01-04T07:11:29.719Z,1
2023-01-04T07:12:38.946Z,1.2
2023-01-04T07:13:48.028Z,1.2
2023-01-04T07:14:57.204Z,1.2
2023-01-04T07:16:06.360Z,1
2023-01-04T07:17:15.553Z,0.9
2023-01-04T07:18:23.727Z,0.8
2023-01-04T07:19:31.929Z,1.4
2023-01-04T07:20:41.102Z,1
2023-01-04T07:21:50.265Z,1.1
2023-01-04T07:22:58.457Z,1.1
2023-01-04T07:24:06.648Z,1.3
2023-01-04T07:25:15.814Z,1
2023-01-04T07:26:24.980Z,1
2023-01-04T07:27:34.172Z,1
2023-01-04T07:28:43.338Z,1.2
2023-01-04T07:29:52.506Z,1.1
2023-01-04T07:31:01.691Z,1
2023-01-04T07:32:10.855Z,1.3
2023-01-04T07:33:20.022Z,0.9
2023-01-04T07:34:29.202Z,1.3
2023-01-04T07:35:38.379Z,1.3
2023-01-04T07:36:47.534Z,1.3
2023-01-04T07:37:56.718Z,1.7
2023-01-04T07:39:04.911Z,1.3
2023-01-04T07:40:14.080Z,1.1
2023-01-04T07:41:23.237Z,1.2
2023-01-04T07:42:32.418Z,1.2
2023-01-04T07:43:41.598Z,1.8
2023-01-04T07:44:50.760Z,1.3
2023-01-04T07:45:59.933Z,1.2
2023-01-04T07:47:08.147Z,1.1
2023-01-04T07:48:16.332Z,1.2
2023-01-04T07:49:25.491Z,1.1
2023-01-04T07:50:34.696Z,1.3
2023-01-04T07:51:43.825Z,1.2
2023-01-04T07:52:53.020Z,1.1
2023-01-04T07:54:02.178Z,1.3
2023-01-04T07:55:11.346Z,1.2
2023-01-04T07:56:20.525Z,1.4
2023-01-04T07:57:29.697Z,1.7
2023-01-04T07:58:37.945Z,0.9
2023-01-04T07:59:46.089Z,1.2
2023-01-04T08:00:55.258Z,1.4
2023-01-04T08:02:04.504Z,1
2023-01-04T08:03:13.588Z,1.1
2023-01-04T08:04:22.774Z,1.2
2023-01-04T08:05:31.940Z,1.3
2023-01-04T08:06:41.170Z,1.4
2023-01-04T08:07:50.319Z,1.1
2023-01-04T08:08:59.467Z,1.3
2023-01-04T08:10:08.627Z,1.2
2023-01-04T08:11:17.802Z,1.1
2023-01-04T08:12:26.988Z,1.3
2023-01-04T08:13:35.176Z,1.4
2023-01-04T08:17:02.738Z,1.3
2023-01-04T08:18:10.890Z,1
2023-01-04T08:19:19.071Z,1.1
2023-01-04T08:20:28.251Z,1.2
2023-01-04T08:21:37.473Z,0.9
2023-01-04T08:22:46.583Z,1.2
2023-01-04T08:23:55.756Z,1.5
2023-01-04T08:25:04.962Z,1.3
2023-01-04T08:26:14.118Z,1.2
2023-01-04T08:27:23.292Z,2
2023-01-04T08:28:32.458Z,1.1
2023-01-04T08:29:41.623Z,1.1
2023-01-04T08:30:49.816Z,1.5
2023-01-04T08:31:58.010Z,1.2
2023-01-04T08:33:07.183Z,1.4
2023-01-04T08:34:16.358Z,1.1
2023-01-04T08:35:25.527Z,1.1
2023-01-04T08:36:34.717Z,1.3
2023-01-04T08:37:43.869Z,1.1
2023-01-04T08:38:53.051Z,1
2023-01-04T08:40:02.218Z,1
2023-01-04T08:41:11.384Z,1.4
2023-01-04T08:42:20.569Z,1.3
2023-01-04T08:43:29.859Z,1.5
2023-01-04T08:44:38.897Z,1.4
2023-01-04T08:45:48.082Z,1.3
2023-01-04T08:46:56.273Z,1.2
2023-01-04T08:48:05.446Z,1.3
2023-01-04T08:49:14.619Z,1.4
2023-01-04T08:50:23.790Z,1
2023-01-04T08:51:32.961Z,1.8
2023-01-04T08:52:42.138Z,1.2
2023-01-04T08:53:51.295Z,1.3
2023-01-04T08:54:59.500Z,1
2023-01-04T08:56:07.714Z,1
2023-01-04T08:57:16.871Z,1.2
2023-01-04T08:58:26.043Z,1.1
2023-01-04T08:59:34.220Z,1
2023-01-04T09:01:51.591Z,1.3
2023-01-04T09:03:00.759Z,1.1
2023-01-04T09:04:09.927Z,1.1
2023-01-04T09:05:19.105Z,1.1
2023-01-04T09:06:28.286Z,1
2023-01-04T09:07:37.446Z,1.1
2023-01-04T09:08:46.630Z,1.1
2023-01-04T09:09:55.804Z,1.2
2023-01-04T09:11:04.979Z,1.1
2023-01-04T09:12:14.136Z,1.3
2023-01-04T09:13:23.310Z,1.5
2023-01-04T09:14:32.486Z,1
2023-01-04T09:15:40.680Z,1.3
2023-01-04T09:16:49.856Z,1.4
2023-01-04T09:17:59.020Z,1.4
2023-01-04T09:19:08.192Z,1.9
2023-01-04T09:20:17.359Z,1.4
2023-01-04T09:21:26.558Z,1.2
2023-01-04T09:22:35.708Z,1.3
2023-01-04T09:23:44.890Z,1.2
2023-01-04T09:24:54.063Z,1.3
2023-01-04T09:26:03.228Z,1.2
2023-01-04T09:27:12.403Z,1
2023-01-04T09:28:21.578Z,1.1
2023-01-04T09:29:30.752Z,1.1
2023-01-04T09:30:38.961Z,1.2
2023-01-04T09:31:47.134Z,1.5
2023-01-04T09:32:55.337Z,1.2
2023-01-04T09:34:03.518Z,1.2
2023-01-04T09:35:12.697Z,1
2023-01-04T09:36:21.875Z,0.9
2023-01-04T09:37:31.098Z,1.2
2023-01-04T09:38:40.358Z,1.5
2023-01-04T09:39:49.384Z,1
2023-01-04T09:40:58.649Z,0.9
2023-01-04T09:42:07.893Z,1.3
2023-01-04T09:43:16.899Z,1.1
2023-01-04T09:44:26.066Z,1.4
2023-01-04T09:45:35.232Z,1.2
2023-01-04T09:46:44.417Z,1.2
2023-01-04T09:47:53.583Z,1.3
2023-01-04T09:49:02.755Z,1.4
2023-01-04T09:50:11.091Z,1.6
2023-01-04T09:51:20.280Z,1.3
2023-01-04T09:52:29.297Z,1.5
2023-01-04T09:53:38.701Z,1.7
2023-01-04T09:54:47.849Z,2.3
2023-01-04T09:55:56.918Z,1.2
2023-01-04T09:57:06.163Z,1.2
2023-01-04T09:58:15.354Z,1.4
2023-01-04T09:59:24.493Z,1.1
2023-01-04T10:00:33.603Z,1
2023-01-04T10:01:42.819Z,1.3
2023-01-04T10:02:52.008Z,1
2023-01-04T10:04:01.038Z,1.2
2023-01-04T10:05:09.369Z,1.2
2023-01-04T10:06:18.535Z,1.9
2023-01-04T10:07:27.703Z,1.4
2023-01-04T10:08:36.865Z,1.4
2023-01-04T10:10:55.249Z,1.1
2023-01-04T10:12:04.415Z,1.3
2023-01-04T10:13:13.416Z,1.2
2023-01-04T10:14:21.648Z,1.1
2023-01-04T10:15:29.906Z,1.4
2023-01-04T10:16:39.152Z,1.3
2023-01-04T10:17:47.263Z,1.2
2023-01-04T10:18:55.540Z,1.2
2023-01-04T10:22:23.050Z,1.4
2023-01-04T10:23:32.191Z,1.2
2023-01-04T10:24:41.394Z,1.2
2023-01-04T10:25:50.565Z,1.3
2023-01-04T10:26:59.787Z,1.2
2023-01-04T10:28:08.737Z,1.2
2023-01-04T10:29:18.080Z,1.2
2023-01-04T10:30:27.273Z,1.2
2023-01-04T10:31:36.416Z,1.3
2023-01-04T10:32:44.698Z,1.1
2023-01-04T10:33:52.644Z,2.5
2023-01-04T10:35:01.978Z,1.3
2023-01-04T10:36:11.067Z,1.3
2023-01-04T10:37:20.240Z,2.5
2023-01-04T10:38:29.556Z,4.1
2023-01-04T10:39:38.644Z,2.09
2023-01-04T10:40:47.872Z,2.09
2023-01-04T10:41:56.844Z,2.7
2023-01-04T10:43:06.182Z,2.5
2023-01-04T10:44:15.301Z,2.7
2023-01-04T10:45:23.453Z,2.6
2023-01-04T10:46:31.750Z,3.3
2023-01-04T10:47:40.848Z,3.6
2023-01-04T10:48:50.110Z,3.8
2023-01-04T10:49:59.243Z,3.5
2023-01-04T10:52:17.583Z,3.1
2023-01-04T10:53:26.725Z,2.9
2023-01-04T10:54:35.950Z,3.3
2023-01-04T10:55:45.108Z,3.4
2023-01-04T10:56:54.307Z,3.4
2023-01-04T10:58:03.443Z,3.5
2023-01-04T10:59:12.637Z,3.4
2023-01-04T11:00:21.815Z,3.4
2023-01-04T11:01:30.034Z,3.5
2023-01-04T11:02:39.008Z,3.5
2023-01-04T11:03:48.354Z,3.7
2023-01-04T11:04:57.531Z,4
2023-01-04T11:06:06.695Z,3.7
2023-01-04T11:07:15.881Z,3.1
2023-01-04T11:08:24.990Z,3.4
2023-01-04T11:09:34.209Z,3.6
2023-01-04T11:10:42.433Z,3.6
2023-01-04T11:11:50.431Z,3.4
2023-01-04T11:12:59.797Z,3.3
2023-01-04T11:14:08.768Z,3
2023-01-04T11:15:18.115Z,3.2
2023-01-04T11:16:26.309Z,3.3
2023-01-04T11:17:34.328Z,3.3
2023-01-04T11:18:43.672Z,3
2023-01-04T11:19:52.870Z,3.5
2023-01-04T11:21:02.018Z,2.9
2023-01-04T11:22:11.024Z,3.4
2023-01-04T11:23:20.345Z,3.2
2023-01-04T11:24:29.414Z,3.3
2023-01-04T11:25:38.731Z,2.9
2023-01-04T11:26:47.877Z,3.2
2023-01-04T11:27:56.878Z,3.1
2023-01-04T11:33:42.751Z,3
2023-01-04T11:34:51.155Z,3
2023-01-04T11:35:59.316Z,3.6
2023-01-04T11:37:08.473Z,3.2
2023-01-04T11:38:17.695Z,3.7
2023-01-04T11:39:26.810Z,3.1
2023-01-04T11:40:36.008Z,3.8
2023-01-04T11:41:45.155Z,3.5
2023-01-04T11:42:54.344Z,3.4
2023-01-04T11:44:03.338Z,3.2
2023-01-04T11:45:12.637Z,3.3
2023-01-04T11:46:21.715Z,2.8
2023-01-04T11:47:30.019Z,3.1
2023-01-04T11:48:38.336Z,3.2
2023-01-04T11:49:47.393Z,3.3
2023-01-04T11:50:56.599Z,3.3
2023-01-04T11:52:05.747Z,2.7
2023-01-04T11:53:14.997Z,2.6
2023-01-04T11:54:24.076Z,2.6
2023-01-04T11:55:33.303Z,2.7
2023-01-04T11:56:42.442Z,2.8
2023-01-04T11:57:51.457Z,2.8
2023-01-04T11:59:00.620Z,2.4
2023-01-04T12:00:09.979Z,2.8
2023-01-04T12:01:19.136Z,3.1
2023-01-04T12:02:28.332Z,3
2023-01-04T12:03:36.478Z,3
2023-01-04T12:04:44.570Z,3.2
2023-01-04T12:05:53.846Z,2.6
2023-01-04T12:07:02.861Z,2.4
2023-01-04T12:08:12.214Z,2.6
2023-01-04T12:09:21.396Z,2.8
2023-01-04T12:10:30.371Z,2.5
2023-01-04T12:11:39.724Z,2.5
2023-01-04T12:12:48.724Z,2.6
2023-01-04T12:13:58.024Z,2.4
2023-01-04T12:15:07.225Z,2.5
2023-01-04T12:16:16.425Z,2.7
2023-01-04T12:17:25.414Z,2.4
2023-01-04T12:18:34.783Z,2.5
2023-01-04T12:19:42.935Z,2.4
2023-01-04T12:20:52.125Z,2.6
2023-01-04T12:22:01.289Z,3
2023-01-04T12:23:10.495Z,3
2023-01-04T12:24:19.457Z,2.9
2023-01-04T12:26:37.992Z,2.3
2023-01-04T12:27:47.094Z,2.9
2023-01-04T12:28:56.329Z,3
2023-01-04T12:30:05.526Z,3
2023-01-04T12:31:14.491Z,3.1
2023-01-04T12:32:23.846Z,2.5
2023-01-04T12:33:32.845Z,2.6
2023-01-04T12:34:41.194Z,2.8
2023-01-04T12:36:59.541Z,2.7
2023-01-04T12:38:08.743Z,2.7
2023-01-04T12:39:17.873Z,2.7
2023-01-04T12:40:27.079Z,2.09
2023-01-04T12:41:36.279Z,2.3
2023-01-04T12:42:45.224Z,2.2
2023-01-04T12:43:54.421Z,2.6
2023-01-04T12:45:03.594Z,2.3
2023-01-04T12:46:12.951Z,3.6
2023-01-04T12:47:21.106Z,2.3
2023-01-04T12:48:30.317Z,2.3
2023-01-04T12:49:38.441Z,2.4
2023-01-04T12:50:47.644Z,2.3
2023-01-04T12:51:56.782Z,2.09
2023-01-04T12:53:06.016Z,2.3
2023-01-04T12:54:15.156Z,2.2
2023-01-04T12:55:24.355Z,1.9
2023-01-04T12:56:33.464Z,2
2023-01-04T12:57:42.672Z,2.09
2023-01-04T12:58:51.862Z,2.3
2023-01-04T13:00:01.022Z,2.4
2023-01-04T13:01:09.049Z,2.7
2023-01-04T13:02:17.403Z,2.2
2023-01-04T13:03:26.595Z,2.2
2023-01-04T13:04:35.743Z,2.4
2023-01-04T13:05:44.905Z,2.5
2023-01-04T13:06:54.108Z,2.6
2023-01-04T13:09:12.487Z,2.6
2023-01-04T13:10:21.676Z,2.5
2023-01-04T13:11:30.795Z,2.5
2023-01-04T13:12:40.027Z,3.1
2023-01-04T13:13:49.137Z,2.7
2023-01-04T13:14:58.279Z,2.5
2023-01-04T13:16:07.486Z,2.5
2023-01-04T13:17:15.662Z,2.4
2023-01-04T13:18:24.891Z,2.4
2023-01-04T13:19:34.068Z,2.2
2023-01-04T13:20:43.271Z,2.5
2023-01-04T13:23:01.608Z,2.09
2023-01-04T13:24:09.546Z,2.09
2023-01-04T13:25:17.861Z,2.09
2023-01-04T13:26:27.054Z,2.2
2023-01-04T13:27:36.212Z,2.3
2023-01-04T13:28:45.419Z,2.5
2023-01-04T13:29:54.623Z,2.5
2023-01-04T13:31:03.762Z,2.5
2023-01-04T13:32:12.925Z,2.5
2023-01-04T13:34:31.290Z,2.4
2023-01-04T13:35:40.506Z,2.5
2023-01-04T13:36:49.458Z,2.5
2023-01-04T13:37:58.607Z,2
2023-01-04T13:39:08.035Z,2.2
2023-01-04T13:40:15.981Z,2.09
2023-01-04T13:42:34.536Z,2.2
2023-01-04T13:43:42.622Z,2
2023-01-04T13:44:50.853Z,1.9
2023-01-04T13:45:59.992Z,1.8
2023-01-04T13:47:09.216Z,1.9
2023-01-04T13:48:18.343Z,2
2023-01-04T13:49:27.606Z,2
2023-01-04T13:50:36.731Z,2
2023-01-04T13:51:45.909Z,2
2023-01-04T13:52:54.944Z,2
2023-01-04T13:54:04.266Z,2
2023-01-04T13:55:13.424Z,1.9
2023-01-04T13:56:21.463Z,2
2023-01-04T13:57:29.804Z,2
2023-01-04T13:58:39.000Z,2
2023-01-04T13:59:48.174Z,2
2023-01-04T14:00:57.297Z,1.9
2023-01-04T14:02:06.478Z,1.8
2023-01-04T14:03:15.745Z,1.8
2023-01-04T14:04:24.788Z,2
2023-01-04T14:05:33.857Z,2
2023-01-04T14:06:43.149Z,1.8
2023-01-04T14:07:52.360Z,1.9
2023-01-04T14:09:00.388Z,2.09
2023-01-04T14:10:08.658Z,2.09
2023-01-04T14:11:17.922Z,1.9
2023-01-04T14:12:27.090Z,2.09
2023-01-04T14:13:36.068Z,2
2023-01-04T14:14:45.262Z,1.8
2023-01-04T14:15:54.641Z,2.3
2023-01-04T14:17:03.769Z,2
2023-01-04T14:18:12.889Z,2
2023-01-04T14:19:22.122Z,2.3
2023-01-04T14:20:31.310Z,2.09
2023-01-04T14:21:40.479Z,2.7
2023-01-04T14:22:49.468Z,2.2
2023-01-04T14:23:58.636Z,2
2023-01-04T14:25:06.819Z,1.8
2023-01-04T14:26:16.001Z,1.8
2023-01-04T14:27:25.396Z,1.8
2023-01-04T14:28:34.527Z,2.09
2023-01-04T14:29:43.615Z,2.4
2023-01-04T14:30:52.833Z,1.9
2023-01-04T14:32:02.121Z,1.7
2023-01-04T14:33:11.185Z,1.7
2023-01-04T14:34:20.193Z,1.8
2023-01-04T14:35:29.568Z,1.7
2023-01-04T14:36:38.706Z,1.8
2023-01-04T14:37:47.875Z,1.7
2023-01-04T14:40:06.201Z,1.7
2023-01-04T14:41:15.375Z,1.7
2023-01-04T14:42:23.564Z,1.7
2023-01-04T14:44:40.869Z,1.5
2023-01-04T14:45:49.951Z,2
2023-01-04T14:46:59.388Z,1.8
2023-01-04T14:48:08.461Z,1.6
2023-01-04T14:49:17.530Z,1.5
2023-01-04T14:50:26.787Z,2.6
2023-01-04T14:52:45.047Z,1.5
2023-01-04T14:53:53.368Z,1.7
2023-01-04T14:55:01.429Z,2.2
2023-01-04T14:56:10.665Z,1.5
2023-01-04T14:57:19.897Z,1.6
2023-01-04T14:58:29.101Z,1.9
2023-01-04T14:59:38.260Z,2
2023-01-04T15:00:47.428Z,1.9
2023-01-04T15:01:56.553Z,1.6
2023-01-04T15:03:05.727Z,1.3
2023-01-04T15:04:14.903Z,1.5
2023-01-04T15:05:24.137Z,1.5
2023-01-04T15:07:42.413Z,1.5
2023-01-04T15:10:00.792Z,1.5
2023-01-04T15:11:08.966Z,1.4
2023-01-04T15:12:17.160Z,1.5
2023-01-04T15:13:26.308Z,1.5
2023-01-04T15:14:35.458Z,1.7
2023-01-04T15:16:53.871Z,1.7
2023-01-04T15:18:03.011Z,1.7
2023-01-04T15:19:12.197Z,1.8
2023-01-04T15:20:21.440Z,1.6
2023-01-04T15:21:30.551Z,1.6
2023-01-04T15:22:39.636Z,1.7
2023-01-04T15:23:48.852Z,1.6
2023-01-04T15:24:58.029Z,1.7
2023-01-04T15:26:07.294Z,1.6
2023-01-04T15:27:15.464Z,1.7
2023-01-04T15:28:24.621Z,2.09
2023-01-04T15:29:33.764Z,1.7
2023-01-04T15:30:42.914Z,1.8
2023-01-04T15:31:52.104Z,1.6
2023-01-04T15:33:01.276Z,1.7
2023-01-04T15:34:10.435Z,1.7
2023-01-04T15:35:19.613Z,1.7
2023-01-04T15:36:27.810Z,2
2023-01-04T15:37:35.995Z,1.7
2023-01-04T15:38:45.010Z,2.6
2023-01-04T15:39:54.324Z,2.4
2023-01-04T15:41:03.486Z,1.7
2023-01-04T15:42:12.702Z,1.6
2023-01-04T15:43:21.807Z,1.6
2023-01-04T15:44:31.013Z,1.5
2023-01-04T15:45:40.311Z,1.6
2023-01-04T15:46:49.414Z,1.7
2023-01-04T15:47:58.539Z,1.6
2023-01-04T15:49:07.687Z,1.9
2023-01-04T15:50:16.897Z,1.7
2023-01-04T15:51:26.090Z,2
2023-01-04T15:53:43.250Z,1.7
2023-01-04T15:54:52.613Z,1.8
2023-01-04T15:56:00.800Z,1.7
2023-01-04T15:57:09.964Z,1.5
2023-01-04T15:58:19.150Z,1.7
2023-01-04T15:59:28.325Z,1.6
2023-01-04T16:00:37.457Z,1.6
2023-01-04T16:01:45.488Z,2.6
2023-01-04T16:02:53.831Z,1.5
2023-01-04T16:04:02.039Z,1.6
2023-01-04T16:05:10.270Z,1.7
2023-01-04T16:06:19.437Z,2.4
2023-01-04T16:07:28.590Z,1.8
2023-01-04T16:08:37.765Z,1.6
2023-01-04T16:09:46.868Z,1.7
2023-01-04T16:10:56.149Z,1.9
2023-01-04T16:12:05.283Z,2
2023-01-04T16:13:14.430Z,1.8
2023-01-04T16:14:23.647Z,1.7
2023-01-04T16:15:32.764Z,1.7
2023-01-04T16:16:41.972Z,2.9
2023-01-04T16:17:51.133Z,1.7
2023-01-04T16:19:00.386Z,1.6
2023-01-04T16:20:08.503Z,1.8
2023-01-04T16:21:17.668Z,1.7
2023-01-04T16:22:26.908Z,2.3
2023-01-04T16:24:45.215Z,1.6
2023-01-04T16:25:54.366Z,2.09
2023-01-04T16:27:03.594Z,1.8
2023-01-04T16:28:12.648Z,1.7
2023-01-04T16:29:20.877Z,1.7
2023-01-04T16:30:29.070Z,1.7
2023-01-04T16:31:37.266Z,2
2023-01-04T16:32:45.327Z,1.7
2023-01-04T16:33:54.643Z,1.9
2023-01-04T16:35:03.802Z,1.7
2023-01-04T16:36:12.975Z,2.3
2023-01-04T16:37:22.110Z,1.7
2023-01-04T16:38:31.388Z,2.09
2023-01-04T16:39:40.491Z,1.6
2023-01-04T16:40:49.580Z,2.2
2023-01-04T16:41:58.850Z,1.8